createdAt,value
2019-01-22T00:00:12.943Z,-3.30
2019-01-22T00:02:41.183Z,-3.40
2019-01-22T00:05:10.200Z,-3.40
2019-01-22T00:07:38.448Z,-3.40
2019-01-22T00:10:07.268Z,-3.40
2019-01-22T00:12:35.328Z,-3.40
2019-01-22T00:15:04.492Z,-3.40
2019-01-22T00:17:32.587Z,-3.40
2019-01-22T00:20:01.676Z,-3.50
2019-01-22T00:22:31.580Z,-3.50
2019-01-22T00:25:00.584Z,-3.50
2019-01-22T00:27:28.810Z,-3.50
2019-01-22T00:29:57.033Z,-3.50
2019-01-22T00:32:25.659Z,-3.50
2019-01-22T00:34:53.792Z,-3.50
2019-01-22T00:37:22.016Z,-3.40
2019-01-22T00:39:49.869Z,-3.40
2019-01-22T00:42:18.039Z,-3.40
2019-01-22T00:44:45.975Z,-3.40
2019-01-22T00:47:14.294Z,-3.50
2019-01-22T00:49:42.376Z,-3.60
2019-01-22T00:52:10.602Z,-3.60
2019-01-22T00:54:38.603Z,-3.70
2019-01-22T00:57:06.838Z,-3.70
2019-01-22T00:59:35.167Z,-3.70
2019-01-22T01:02:03.910Z,-3.80
2019-01-22T01:04:32.050Z,-3.70
2019-01-22T01:07:00.373Z,-3.80
2019-01-22T01:09:28.473Z,-3.80
2019-01-22T01:11:56.715Z,-3.80
2019-01-22T01:14:24.802Z,-3.80
2019-01-22T01:16:53.410Z,-3.90
2019-01-22T01:19:21.663Z,-3.90
2019-01-22T01:21:49.753Z,-3.90
2019-01-22T01:24:17.863Z,-4.00
2019-01-22T01:26:46.183Z,-4.10
2019-01-22T01:29:14.432Z,-4.10
2019-01-22T01:31:42.998Z,-4.10
2019-01-22T01:34:11.292Z,-4.00
2019-01-22T01:36:39.687Z,-4.00
2019-01-22T01:39:07.951Z,-4.00
2019-01-22T01:41:35.856Z,-4.10
2019-01-22T01:44:04.074Z,-4.00
2019-01-22T01:46:32.568Z,-4.00
2019-01-22T01:49:00.759Z,-4.00
2019-01-22T01:51:29.073Z,-4.00
2019-01-22T01:53:58.793Z,-4.00
2019-01-22T01:56:27.038Z,-4.00
2019-01-22T01:58:55.207Z,-4.00
2019-01-22T02:01:23.865Z,-4.00
2019-01-22T02:03:52.379Z,-4.00
2019-01-22T02:06:20.714Z,-4.00
2019-01-22T02:08:48.803Z,-4.00
2019-01-22T02:11:18.412Z,-3.90
2019-01-22T02:13:52.304Z,-3.90
2019-01-22T02:16:44.572Z,-4.00
2019-01-22T02:19:37.412Z,-4.00
2019-01-22T02:22:41.112Z,-4.00
2019-01-22T02:25:28.772Z,-4.00
2019-01-22T02:28:38.255Z,-4.00
2019-01-22T02:31:34.684Z,-4.00
2019-01-22T02:34:43.236Z,-3.90
2019-01-22T02:37:34.065Z,-3.90
2019-01-22T02:40:22.108Z,-3.90
2019-01-22T02:43:16.900Z,-3.90
2019-01-22T02:46:14.629Z,-3.90
2019-01-22T02:48:57.265Z,-4.00
2019-01-22T02:51:53.189Z,-4.00
2019-01-22T02:54:49.649Z,-4.10
2019-01-22T02:57:46.885Z,-4.10
2019-01-22T03:00:40.772Z,-4.00
2019-01-22T03:03:35.264Z,-4.00
2019-01-22T03:06:57.154Z,-3.90
2019-01-22T03:09:56.189Z,-3.90
2019-01-22T03:12:54.628Z,-3.90
2019-01-22T03:16:08.840Z,-3.90
2019-01-22T03:18:52.653Z,-3.90
2019-01-22T03:21:52.695Z,-3.80
2019-01-22T03:24:43.372Z,-3.80
2019-01-22T03:27:23.808Z,-3.90
2019-01-22T03:30:48.738Z,-3.90
2019-01-22T03:33:44.641Z,-4.00
2019-01-22T03:37:03.433Z,-4.00
2019-01-22T03:39:45.932Z,-4.00
2019-01-22T03:43:01.844Z,-4.00
2019-01-22T03:46:23.270Z,-4.00
2019-01-22T03:49:16.065Z,-4.00
2019-01-22T03:52:11.150Z,-3.90
2019-01-22T03:55:45.211Z,-3.90
2019-01-22T03:58:18.047Z,-3.80
2019-01-22T04:01:07.991Z,-3.80
2019-01-22T04:03:36.670Z,-3.80
2019-01-22T04:06:15.090Z,-3.80
2019-01-22T04:08:46.811Z,-3.80
2019-01-22T04:11:20.531Z,-3.80
2019-01-22T04:13:48.410Z,-3.90
2019-01-22T04:16:16.446Z,-3.90
2019-01-22T04:18:44.980Z,-3.90
2019-01-22T04:21:15.179Z,-4.00
2019-01-22T04:23:53.511Z,-4.10
2019-01-22T04:26:47.577Z,-4.00
2019-01-22T04:29:37.789Z,-4.00
2019-01-22T04:32:19.951Z,-4.00
2019-01-22T04:35:28.344Z,-4.00
2019-01-22T04:38:21.814Z,-3.90
2019-01-22T04:41:07.146Z,-3.90
2019-01-22T04:44:05.803Z,-3.90
2019-01-22T04:46:54.675Z,-3.90
2019-01-22T04:50:05.781Z,-3.90
2019-01-22T04:52:51.458Z,-4.00
2019-01-22T04:55:57.309Z,-4.10
2019-01-22T04:59:04.499Z,-4.10
2019-01-22T05:02:10.341Z,-4.20
2019-01-22T05:05:01.353Z,-4.20
2019-01-22T05:08:10.413Z,-4.20
2019-01-22T05:10:50.310Z,-4.20
2019-01-22T05:13:42.774Z,-4.10
2019-01-22T05:16:41.736Z,-4.10
2019-01-22T05:19:25.300Z,-4.10
2019-01-22T05:22:49.036Z,-4.10
2019-01-22T05:25:56.827Z,-4.10
2019-01-22T05:28:39.265Z,-4.10
2019-01-22T05:32:00.808Z,-4.10
2019-01-22T05:34:49.023Z,-4.20
2019-01-22T05:38:04.341Z,-4.10
2019-01-22T05:41:27.079Z,-4.10
2019-01-22T05:44:52.180Z,-4.00
2019-01-22T05:48:13.286Z,-4.00
2019-01-22T05:51:07.259Z,-4.00
2019-01-22T05:56:51.463Z,-4.00
2019-01-22T05:59:42.139Z,-4.00
2019-01-22T06:02:13.897Z,-4.00
2019-01-22T06:05:39.129Z,-4.00
2019-01-22T06:08:56.634Z,-4.00
2019-01-22T06:12:15.013Z,-4.00
2019-01-22T06:15:08.745Z,-4.00
2019-01-22T06:18:15.555Z,-4.00
2019-01-22T06:21:21.776Z,-4.00
2019-01-22T06:24:33.110Z,-4.00
2019-01-22T06:27:13.039Z,-4.10
2019-01-22T06:30:27.425Z,-4.10
2019-01-22T06:33:51.892Z,-4.10
2019-01-22T06:37:25.752Z,-4.00
2019-01-22T06:39:59.064Z,-4.00
2019-01-22T06:43:17.828Z,-3.90
2019-01-22T06:46:29.012Z,-4.10
2019-01-22T06:49:13.043Z,-4.20
2019-01-22T06:52:09.020Z,-4.20
2019-01-22T06:55:01.855Z,-4.10
2019-01-22T06:58:14.936Z,-4.20
2019-01-22T07:01:33.817Z,-4.10
2019-01-22T07:04:28.684Z,-4.10
2019-01-22T07:07:41.360Z,-4.00
2019-01-22T07:10:40.501Z,-4.00
2019-01-22T07:13:55.196Z,-3.90
2019-01-22T07:17:03.935Z,-3.90
2019-01-22T07:20:07.912Z,-3.80
2019-01-22T07:23:22.469Z,-3.90
2019-01-22T07:26:08.896Z,-3.90
2019-01-22T07:28:59.757Z,-3.80
2019-01-22T07:31:58.936Z,-3.80
2019-01-22T07:35:00.494Z,-3.80
2019-01-22T07:37:59.884Z,-3.80
2019-01-22T07:41:15.792Z,-3.80
2019-01-22T07:44:12.950Z,-3.70
2019-01-22T07:47:31.195Z,-3.70
2019-01-22T07:50:24.668Z,-3.60
2019-01-22T07:53:09.907Z,-3.50
2019-01-22T07:55:59.736Z,-3.60
2019-01-22T07:58:46.944Z,-3.50
2019-01-22T08:01:50.866Z,-3.50
2019-01-22T08:04:58.676Z,-3.50
2019-01-22T08:08:20.082Z,-3.40
2019-01-22T08:11:18.440Z,-3.40
2019-01-22T08:14:12.436Z,-3.30
2019-01-22T08:17:24.496Z,-3.20
2019-01-22T08:20:33.068Z,-3.20
2019-01-22T08:23:31.909Z,-3.20
2019-01-22T08:26:14.108Z,-3.10
2019-01-22T08:29:14.651Z,-3.20
2019-01-22T08:32:01.390Z,-3.20
2019-01-22T08:35:09.166Z,-3.10
2019-01-22T08:38:14.117Z,-3.00
2019-01-22T08:41:09.190Z,-3.00
2019-01-22T08:43:51.454Z,-3.00
2019-01-22T08:47:20.711Z,-3.10
2019-01-22T08:50:18.688Z,-3.00
2019-01-22T08:53:12.828Z,-3.00
2019-01-22T08:56:09.027Z,-2.90
2019-01-22T08:58:48.975Z,-2.90
2019-01-22T09:01:54.725Z,-3.00
2019-01-22T09:05:06.530Z,-2.90
2019-01-22T09:07:53.122Z,-2.90
2019-01-22T09:11:04.341Z,-2.70
2019-01-22T09:13:56.769Z,-2.80
2019-01-22T09:17:21.663Z,-2.90
2019-01-22T09:20:07.923Z,-2.90
2019-01-22T09:23:32.410Z,-2.90
2019-01-22T09:26:38.707Z,-2.80
2019-01-22T09:29:44.172Z,-2.70
2019-01-22T09:32:48.483Z,-2.50
2019-01-22T09:35:54.000Z,-2.40
2019-01-22T09:38:22.314Z,-2.40
2019-01-22T09:40:50.787Z,-2.60
2019-01-22T09:43:18.921Z,-2.50
2019-01-22T09:45:47.353Z,-2.40
2019-01-22T09:48:17.142Z,-2.40
2019-01-22T09:50:45.180Z,-2.40
2019-01-22T09:53:13.267Z,-2.40
2019-01-22T09:55:41.457Z,-2.40
2019-01-22T09:58:09.497Z,-2.40
2019-01-22T10:00:37.637Z,-2.20
2019-01-22T10:03:05.652Z,-2.20
2019-01-22T10:05:33.848Z,-2.10
2019-01-22T10:08:02.087Z,-2.10
2019-01-22T10:10:30.180Z,-2.00
2019-01-22T10:12:58.262Z,-2.00
2019-01-22T10:15:28.055Z,-1.90
2019-01-22T10:17:57.276Z,-1.90
2019-01-22T10:20:26.223Z,-1.80
2019-01-22T10:22:54.450Z,-1.90
2019-01-22T10:25:29.213Z,-1.80
2019-01-22T10:27:52.644Z,-1.80
2019-01-22T10:30:22.017Z,-1.80
2019-01-22T10:32:50.209Z,-1.80
2019-01-22T10:35:18.492Z,-1.80
2019-01-22T10:37:48.367Z,-1.70
2019-01-22T10:40:18.091Z,-1.80
2019-01-22T10:42:46.264Z,-1.70
2019-01-22T10:45:15.852Z,-1.70
2019-01-22T10:50:37.929Z,-1.70
2019-01-22T10:53:06.233Z,-1.60
2019-01-22T10:55:36.413Z,-1.70
2019-01-22T10:58:08.755Z,-1.80
2019-01-22T11:00:35.189Z,-1.80
2019-01-22T11:03:03.453Z,-1.80
2019-01-22T11:05:33.737Z,-1.70
2019-01-22T11:08:01.967Z,-1.60
2019-01-22T11:10:30.450Z,-1.60
2019-01-22T11:12:58.661Z,-1.60
2019-01-22T11:15:28.032Z,-1.40
2019-01-22T11:17:56.523Z,-1.30
2019-01-22T11:20:25.844Z,-1.30
2019-01-22T11:22:54.007Z,-1.20
2019-01-22T11:25:23.290Z,-1.30
2019-01-22T11:27:51.409Z,-1.30
2019-01-22T11:30:21.048Z,-1.20
2019-01-22T11:32:49.128Z,-1.40
2019-01-22T11:35:18.186Z,-1.40
2019-01-22T11:37:46.339Z,-1.50
2019-01-22T11:40:17.320Z,-1.40
2019-01-22T11:42:45.546Z,-1.30
2019-01-22T11:45:13.737Z,-1.20
2019-01-22T11:47:41.883Z,-1.20
2019-01-22T11:50:12.837Z,-1.00
2019-01-22T11:52:40.864Z,-1.00
2019-01-22T11:55:09.084Z,-1.00
2019-01-22T11:57:38.236Z,-0.90
2019-01-22T12:00:15.640Z,-0.90
2019-01-22T12:02:43.703Z,-0.90
2019-01-22T12:05:11.873Z,-0.90
2019-01-22T12:07:40.145Z,-1.10
2019-01-22T12:10:09.369Z,-1.10
2019-01-22T12:12:37.453Z,-1.30
2019-01-22T12:15:08.016Z,-1.30
2019-01-22T12:17:36.247Z,-1.40
2019-01-22T12:20:07.676Z,-1.30
2019-01-22T12:22:35.879Z,-1.20
2019-01-22T12:25:04.533Z,-1.10
2019-01-22T12:27:32.823Z,-1.10
2019-01-22T12:30:01.091Z,-1.20
2019-01-22T12:32:29.272Z,-1.30
2019-01-22T12:34:57.627Z,-1.30
2019-01-22T12:37:25.807Z,-1.20
2019-01-22T12:39:53.925Z,-1.30
2019-01-22T12:42:27.953Z,-1.40
2019-01-22T12:44:57.490Z,-1.30
2019-01-22T12:47:25.521Z,-1.20
2019-01-22T12:49:53.673Z,-1.20
2019-01-22T12:52:21.638Z,-1.10
2019-01-22T12:54:49.921Z,-1.00
2019-01-22T12:57:18.075Z,-1.00
2019-01-22T12:59:46.370Z,-1.10
2019-01-22T13:02:14.396Z,-1.00
2019-01-22T13:04:42.490Z,-1.00
2019-01-22T13:07:10.540Z,-1.10
2019-01-22T13:09:38.641Z,-1.00
2019-01-22T13:12:06.963Z,-1.10
2019-01-22T13:14:35.258Z,-1.10
2019-01-22T13:17:03.584Z,-1.30
2019-01-22T13:19:32.115Z,-1.30
2019-01-22T13:22:00.347Z,-1.50
2019-01-22T13:24:28.407Z,-1.30
2019-01-22T13:26:58.062Z,-1.20
2019-01-22T13:29:27.132Z,-1.20
2019-01-22T13:31:55.398Z,-1.30
2019-01-22T13:34:23.416Z,-1.40
2019-01-22T13:36:51.623Z,-1.70
2019-01-22T13:39:19.782Z,-1.60
2019-01-22T13:41:48.032Z,-1.60
2019-01-22T13:44:16.246Z,-1.60
2019-01-22T13:46:44.424Z,-1.60
2019-01-22T13:49:12.501Z,-1.50
2019-01-22T13:51:40.625Z,-1.40
2019-01-22T13:54:08.721Z,-1.40
2019-01-22T13:56:36.860Z,-1.40
2019-01-22T13:59:05.088Z,-1.40
2019-01-22T14:01:33.215Z,-1.30
2019-01-22T14:04:01.434Z,-1.30
2019-01-22T14:06:29.459Z,-1.40
2019-01-22T14:08:57.780Z,-1.50
2019-01-22T14:11:26.011Z,-1.60
2019-01-22T14:14:13.368Z,-1.70
2019-01-22T14:16:41.521Z,-1.70
2019-01-22T14:19:10.362Z,-1.80
2019-01-22T14:21:38.504Z,-1.80
2019-01-22T14:24:06.751Z,-1.80
2019-01-22T14:26:36.406Z,-1.80
2019-01-22T14:29:04.637Z,-1.90
2019-01-22T14:31:32.727Z,-1.90
2019-01-22T14:34:00.569Z,-1.90
2019-01-22T14:36:28.677Z,-2.10
2019-01-22T14:38:56.824Z,-2.30
2019-01-22T14:41:24.928Z,-2.20
2019-01-22T14:43:53.078Z,-2.40
2019-01-22T14:46:21.393Z,-2.30
2019-01-22T14:48:49.400Z,-2.30
2019-01-22T14:51:17.639Z,-2.30
2019-01-22T14:53:45.888Z,-2.40
2019-01-22T14:56:13.947Z,-2.40
2019-01-22T14:58:42.153Z,-2.50
2019-01-22T15:01:10.370Z,-2.40
2019-01-22T15:03:41.540Z,-2.40
2019-01-22T15:06:08.769Z,-2.40
2019-01-22T15:08:37.021Z,-2.40
2019-01-22T15:11:05.331Z,-2.50
2019-01-22T15:13:33.549Z,-2.60
2019-01-22T15:16:01.698Z,-2.60
2019-01-22T15:18:29.873Z,-2.70
2019-01-22T15:20:58.146Z,-2.80
2019-01-22T15:23:26.322Z,-2.80
2019-01-22T15:25:56.515Z,-2.80
2019-01-22T15:28:24.676Z,-2.80
2019-01-22T15:30:52.913Z,-2.80
2019-01-22T15:33:21.132Z,-2.90
2019-01-22T15:35:49.485Z,-2.90
2019-01-22T15:38:17.784Z,-2.90
2019-01-22T15:40:46.104Z,-2.90
2019-01-22T15:43:14.045Z,-2.90
2019-01-22T15:45:42.220Z,-2.90
2019-01-22T15:48:10.482Z,-2.90
2019-01-22T15:50:38.731Z,-3.00
2019-01-22T15:53:06.823Z,-3.00
2019-01-22T15:55:36.301Z,-3.00
2019-01-22T15:58:05.415Z,-3.00
2019-01-22T16:00:33.588Z,-3.00
2019-01-22T16:03:01.625Z,-3.00
2019-01-22T16:05:29.766Z,-3.10
2019-01-22T16:07:57.864Z,-3.10
2019-01-22T16:10:26.077Z,-3.10
2019-01-22T16:12:54.299Z,-3.10
2019-01-22T16:15:22.331Z,-3.10
2019-01-22T16:17:51.036Z,-3.10
2019-01-22T16:20:20.714Z,-3.10
2019-01-22T16:22:50.534Z,-3.10
2019-01-22T16:25:18.861Z,-3.10
2019-01-22T16:27:47.148Z,-3.10
2019-01-22T16:30:19.984Z,-3.10
2019-01-22T16:32:48.463Z,-3.10
2019-01-22T16:35:18.079Z,-3.10
2019-01-22T16:37:46.151Z,-3.10
2019-01-22T16:40:14.664Z,-3.10
2019-01-22T16:42:43.081Z,-3.10
2019-01-22T16:45:17.343Z,-3.10
2019-01-22T16:47:45.718Z,-3.10
2019-01-22T16:50:15.696Z,-3.10
2019-01-22T16:52:43.978Z,-3.20
2019-01-22T16:55:15.051Z,-3.20
2019-01-22T16:57:43.092Z,-3.20
2019-01-22T17:00:19.797Z,-3.20
2019-01-22T17:02:48.060Z,-3.20
2019-01-22T17:05:16.925Z,-3.30
2019-01-22T17:07:45.244Z,-3.30
2019-01-22T17:10:14.528Z,-3.40
2019-01-22T17:12:42.801Z,-3.40
2019-01-22T17:15:11.984Z,-3.40
2019-01-22T17:17:40.127Z,-3.40
2019-01-22T17:20:12.517Z,-3.40
2019-01-22T17:22:40.832Z,-3.40
2019-01-22T17:25:09.104Z,-3.40
2019-01-22T17:27:37.215Z,-3.40
2019-01-22T17:30:07.975Z,-3.60
2019-01-22T17:32:51.491Z,-3.60
2019-01-22T17:35:19.883Z,-3.60
2019-01-22T17:37:48.092Z,-3.60
2019-01-22T17:40:16.636Z,-3.60
2019-01-22T17:42:45.187Z,-3.60
2019-01-22T17:45:13.706Z,-3.60
2019-01-22T17:47:41.817Z,-3.60
2019-01-22T17:50:11.119Z,-3.60
2019-01-22T17:52:39.493Z,-3.60
2019-01-22T17:55:08.712Z,-3.60
2019-01-22T17:57:36.938Z,-3.60
2019-01-22T18:00:08.747Z,-3.60
2019-01-22T18:02:36.972Z,-3.60
2019-01-22T18:05:05.562Z,-3.70
2019-01-22T18:07:33.537Z,-3.70
2019-01-22T18:10:01.824Z,-3.80
2019-01-22T18:12:30.193Z,-3.80
2019-01-22T18:14:58.362Z,-3.80
2019-01-22T18:17:26.537Z,-3.80
2019-01-22T18:19:54.828Z,-3.80
2019-01-22T18:22:23.059Z,-3.90
2019-01-22T18:24:51.301Z,-3.90
2019-01-22T18:27:20.818Z,-3.90
2019-01-22T18:29:49.115Z,-4.00
2019-01-22T18:32:17.331Z,-4.00
2019-01-22T18:34:45.475Z,-3.90
2019-01-22T18:37:13.696Z,-3.90
2019-01-22T18:39:41.831Z,-3.90
2019-01-22T18:42:10.149Z,-3.90
2019-01-22T18:44:38.383Z,-4.00
2019-01-22T18:47:06.658Z,-4.00
2019-01-22T18:49:35.826Z,-4.00
2019-01-22T18:52:04.461Z,-4.00
2019-01-22T18:54:32.719Z,-4.00
2019-01-22T18:57:00.907Z,-4.10
2019-01-22T18:59:29.139Z,-4.00
2019-01-22T19:01:57.466Z,-4.00
2019-01-22T19:04:25.607Z,-4.00
2019-01-22T19:06:53.780Z,-4.10
2019-01-22T19:09:21.977Z,-4.00
2019-01-22T19:11:49.949Z,-4.00
2019-01-22T19:14:18.112Z,-4.00
2019-01-22T19:16:46.152Z,-4.10
2019-01-22T19:19:14.279Z,-4.20
2019-01-22T19:21:42.400Z,-4.30
2019-01-22T19:24:10.507Z,-4.30
2019-01-22T19:26:39.642Z,-4.30
2019-01-22T19:29:07.983Z,-4.40
2019-01-22T19:31:36.220Z,-4.40
2019-01-22T19:34:03.731Z,-4.40
2019-01-22T19:36:31.136Z,-4.50
2019-01-22T19:38:58.511Z,-4.50
2019-01-22T19:41:27.683Z,-4.50
2019-01-22T19:43:56.848Z,-4.50
2019-01-22T19:46:23.960Z,-4.50
2019-01-22T19:48:51.207Z,-4.50
2019-01-22T19:51:19.719Z,-4.40
2019-01-22T19:53:48.235Z,-4.40
2019-01-22T19:56:15.723Z,-4.40
2019-01-22T19:58:43.269Z,-4.40
2019-01-22T20:01:10.732Z,-4.40
2019-01-22T20:03:38.073Z,-4.50
2019-01-22T20:06:05.547Z,-4.50
2019-01-22T20:08:33.013Z,-4.60
2019-01-22T20:11:01.368Z,-4.60
2019-01-22T20:13:28.619Z,-4.50
2019-01-22T20:15:56.007Z,-4.50
2019-01-22T20:18:23.321Z,-4.50
2019-01-22T20:20:50.916Z,-4.50
2019-01-22T20:23:18.242Z,-4.50
2019-01-22T20:25:45.688Z,-4.50
2019-01-22T20:28:13.168Z,-4.50
2019-01-22T20:30:40.515Z,-4.50
2019-01-22T20:33:07.801Z,-4.60
2019-01-22T20:35:35.228Z,-4.50
2019-01-22T20:38:02.594Z,-4.50
2019-01-22T20:40:30.028Z,-4.50
2019-01-22T20:42:57.519Z,-4.50
2019-01-22T20:45:25.575Z,-4.50
2019-01-22T20:47:52.954Z,-4.40
2019-01-22T20:50:20.372Z,-4.40
2019-01-22T20:52:47.815Z,-4.40
2019-01-22T20:55:16.642Z,-4.30
2019-01-22T20:57:44.064Z,-4.40
2019-01-22T21:00:15.777Z,-4.30
2019-01-22T21:02:44.054Z,-4.30
2019-01-22T21:05:12.615Z,-4.40
2019-01-22T21:07:39.839Z,-4.40
2019-01-22T21:10:10.288Z,-4.50
2019-01-22T21:12:37.709Z,-4.50
2019-01-22T21:15:05.713Z,-4.50
2019-01-22T21:17:32.920Z,-4.60
2019-01-22T21:20:02.238Z,-4.60
2019-01-22T21:22:29.476Z,-4.60
2019-01-22T21:24:56.859Z,-4.60
2019-01-22T21:27:24.016Z,-4.60
2019-01-22T21:29:51.475Z,-4.60
2019-01-22T21:32:18.723Z,-4.60
2019-01-22T21:34:46.143Z,-4.60
2019-01-22T21:37:13.439Z,-4.60
2019-01-22T21:39:40.889Z,-4.50
2019-01-22T21:42:08.155Z,-4.60
2019-01-22T21:44:35.590Z,-4.60
2019-01-22T21:47:02.864Z,-4.60
2019-01-22T21:49:32.154Z,-4.50
2019-01-22T21:51:59.511Z,-4.50
2019-01-22T21:54:27.022Z,-4.50
2019-01-22T21:56:54.624Z,-4.50
2019-01-22T21:59:21.934Z,-4.60
2019-01-22T22:01:50.582Z,-4.60
2019-01-22T22:04:17.980Z,-4.60
2019-01-22T22:06:47.799Z,-4.60
2019-01-22T22:09:15.292Z,-4.70
2019-01-22T22:11:42.515Z,-4.70
2019-01-22T22:14:09.996Z,-4.70
2019-01-22T22:16:37.223Z,-4.70
2019-01-22T22:19:04.712Z,-4.60
2019-01-22T22:21:32.116Z,-4.60
2019-01-22T22:23:59.502Z,-4.60
2019-01-22T22:26:26.865Z,-4.60
2019-01-22T22:28:54.347Z,-4.70
2019-01-22T22:31:21.751Z,-4.70
2019-01-22T22:33:49.242Z,-4.60
2019-01-22T22:36:18.198Z,-4.60
2019-01-22T22:38:45.568Z,-4.60
2019-01-22T22:41:13.047Z,-4.60
2019-01-22T22:43:40.363Z,-4.60
2019-01-22T22:46:07.840Z,-4.60
2019-01-22T22:48:35.200Z,-4.70
2019-01-22T22:51:02.561Z,-4.70
2019-01-22T22:53:30.016Z,-4.70
2019-01-22T22:55:57.375Z,-4.70
2019-01-22T22:58:24.709Z,-4.80
2019-01-22T23:01:07.973Z,-4.70
2019-01-22T23:03:36.602Z,-4.80
2019-01-22T23:06:03.861Z,-4.70
2019-01-22T23:08:31.246Z,-4.80
2019-01-22T23:10:58.476Z,-4.80
2019-01-22T23:13:25.851Z,-4.80
2019-01-22T23:15:53.175Z,-4.90
2019-01-22T23:18:20.554Z,-4.90
2019-01-22T23:20:47.897Z,-4.90
2019-01-22T23:23:15.177Z,-4.90
2019-01-22T23:25:42.587Z,-4.90
2019-01-22T23:28:10.084Z,-4.90
2019-01-22T23:30:37.308Z,-4.90
2019-01-22T23:33:04.780Z,-4.90
2019-01-22T23:35:32.244Z,-4.80
2019-01-22T23:37:59.651Z,-4.80
2019-01-22T23:40:27.151Z,-4.80
2019-01-22T23:42:54.504Z,-4.80
2019-01-22T23:45:21.956Z,-4.80
2019-01-22T23:47:49.400Z,-4.80
2019-01-22T23:50:16.787Z,-4.80
2019-01-22T23:52:43.919Z,-4.90
2019-01-22T23:55:11.363Z,-4.90
2019-01-22T23:57:40.203Z,-4.90
